Time;durP1;ratioP1;P1;durP2;ratioP2;P2;SDS_P1;SDS_P2;PMS_P1;PMS_P2;Temp;Humidity;BMP_temperature;BMP_pressure;BME280_temperature;BME280_humidity;BME280_pressure;Samples;Min_cycle;Max_cycle;Signal;HPM_P1;HPM_P2
2021/09/04 00:01:12;;;;;;;22.10;14.23;;;16.60;99.90;;;;;;5014622;28;20449;-50
2021/09/04 00:03:39;;;;;;;21.90;12.27;;;16.60;99.90;;;;;;5015044;28;20460;-49
2021/09/04 00:06:05;;;;;;;24.33;14.73;;;16.60;99.90;;;;;;5014912;28;20445;-49
2021/09/04 00:08:32;;;;;;;25.70;14.60;;;16.50;99.90;;;;;;5015026;28;20503;-52
2021/09/04 00:10:59;;;;;;;23.70;15.23;;;16.50;99.90;;;;;;5014646;28;20464;-50
2021/09/04 00:13:27;;;;;;;22.73;13.37;;;16.50;99.90;;;;;;5014708;28;20915;-50
2021/09/04 00:15:54;;;;;;;26.10;15.27;;;16.50;99.90;;;;;;5014956;28;20445;-53
2021/09/04 00:18:20;;;;;;;22.10;12.87;;;16.50;99.90;;;;;;5014933;28;20489;-52
2021/09/04 00:20:47;;;;;;;17.77;13.60;;;16.40;99.90;;;;;;5014888;28;20756;-49
2021/09/04 00:23:14;;;;;;;22.40;15.07;;;16.40;99.90;;;;;;5014917;28;20445;-53
2021/09/04 00:25:40;;;;;;;20.80;14.17;;;16.40;99.90;;;;;;5014742;28;20492;-53
2021/09/04 00:28:07;;;;;;;27.60;14.17;;;16.40;99.90;;;;;;5014574;28;20456;-52
2021/09/04 00:30:35;;;;;;;24.07;16.67;;;16.30;99.90;;;;;;5014474;28;20445;-52
2021/09/04 00:33:02;;;;;;;24.80;14.93;;;16.30;99.90;;;;;;5014793;28;20980;-52
2021/09/04 00:35:29;;;;;;;22.77;15.30;;;16.30;99.90;;;;;;5014815;28;20444;-52
2021/09/04 00:37:58;;;;;;;20.80;13.90;;;16.30;99.90;;;;;;5014562;28;20481;-54
2021/09/04 00:40:25;;;;;;;28.10;15.17;;;16.30;99.90;;;;;;5014465;28;20453;-51
2021/09/04 00:42:55;;;;;;;18.97;13.13;;;16.20;99.90;;;;;;5014358;28;20539;-52
2021/09/04 00:45:22;;;;;;;27.80;15.13;;;16.20;99.90;;;;;;5014698;28;20441;-53
2021/09/04 00:47:57;;;;;;;20.77;13.53;;;16.10;99.90;;;;;;5014423;28;20503;-51
2021/09/04 00:50:25;;;;;;;30.10;15.67;;;16.10;99.90;;;;;;5014350;28;20938;-50
2021/09/04 00:52:52;;;;;;;26.00;14.60;;;16.10;99.90;;;;;;5014690;28;20452;-49
2021/09/04 00:55:19;;;;;;;27.80;14.83;;;16.10;99.90;;;;;;5014375;28;20449;-47
2021/09/04 00:57:47;;;;;;;29.00;15.57;;;16.10;99.90;;;;;;5014428;28;20946;-49
2021/09/04 01:00:14;;;;;;;24.63;16.20;;;16.00;99.90;;;;;;5014639;28;20456;-51
2021/09/04 01:02:41;;;;;;;25.97;17.00;;;16.00;99.90;;;;;;5014407;28;20476;-49
2021/09/04 01:05:10;;;;;;;24.43;16.00;;;16.00;99.90;;;;;;5014295;28;20452;-50
2021/09/04 01:07:37;;;;;;;22.90;14.13;;;15.90;99.90;;;;;;5014245;28;20456;-48
2021/09/04 01:10:05;;;;;;;21.90;14.60;;;15.90;99.90;;;;;;5014160;28;20954;-47
2021/09/04 01:12:32;;;;;;;28.10;15.40;;;15.80;99.90;;;;;;5016728;28;20526;-46
2021/09/04 01:14:59;;;;;;;23.97;15.40;;;15.80;99.90;;;;;;5018063;28;20518;-48
2021/09/04 01:17:26;;;;;;;29.70;15.17;;;15.80;99.90;;;;;;5018247;28;20542;-47
2021/09/04 01:19:52;;;;;;;24.33;14.60;;;15.80;99.90;;;;;;5017960;28;20499;-46
2021/09/04 01:22:20;;;;;;;24.63;15.70;;;15.70;99.90;;;;;;5018319;28;20882;-52
2021/09/04 01:24:50;;;;;;;23.73;14.53;;;15.70;99.90;;;;;;5017978;28;20460;-52
2021/09/04 01:27:18;;;;;;;26.70;15.80;;;15.70;99.90;;;;;;5018221;28;20913;-53
2021/09/04 01:29:46;;;;;;;23.07;15.13;;;15.70;99.90;;;;;;5018192;28;20453;-54
2021/09/04 01:32:12;;;;;;;23.67;15.60;;;15.70;99.90;;;;;;5017889;28;20452;-53
2021/09/04 01:34:39;;;;;;;35.40;18.37;;;15.70;99.90;;;;;;5018055;28;20511;-53
2021/09/04 01:37:06;;;;;;;24.63;15.53;;;15.70;99.90;;;;;;5017640;28;20530;-52
2021/09/04 01:39:33;;;;;;;24.90;15.87;;;15.70;99.90;;;;;;5017882;28;20452;-54
2021/09/04 01:42:00;;;;;;;26.57;16.77;;;15.60;99.90;;;;;;5017943;28;20865;-49
2021/09/04 01:44:31;;;;;;;22.77;15.23;;;15.60;99.90;;;;;;5017367;28;20482;-47
2021/09/04 01:47:00;;;;;;;28.20;16.83;;;15.50;99.90;;;;;;5017819;28;20433;-47
2021/09/04 01:49:26;;;;;;;26.40;15.50;;;15.50;99.90;;;;;;5017436;28;20441;-46
2021/09/04 01:51:53;;;;;;;21.33;13.63;;;15.40;99.90;;;;;;5017774;28;20519;-47
2021/09/04 01:54:20;;;;;;;24.97;15.90;;;15.40;99.90;;;;;;5018034;28;20457;-50
2021/09/04 01:56:47;;;;;;;27.63;15.90;;;15.30;99.90;;;;;;5019439;28;20445;-48
2021/09/04 01:59:13;;;;;;;25.00;15.13;;;15.30;99.90;;;;;;5018059;28;20489;-52
2021/09/04 02:01:41;;;;;;;29.60;15.50;;;15.30;99.90;;;;;;5017366;28;20461;-47
2021/09/04 02:04:08;;;;;;;25.03;15.73;;;15.30;99.90;;;;;;5017229;28;20476;-48
2021/09/04 02:06:35;;;;;;;26.67;14.90;;;15.20;99.90;;;;;;5017350;28;20453;-48
2021/09/04 02:09:01;;;;;;;27.17;15.37;;;15.20;99.90;;;;;;5017183;28;20444;-47
2021/09/04 02:11:28;;;;;;;24.60;14.77;;;15.20;99.90;;;;;;5017501;28;20457;-53
2021/09/04 02:13:55;;;;;;;29.30;15.40;;;15.20;99.90;;;;;;5017087;28;20453;-55
2021/09/04 02:16:22;;;;;;;27.80;14.40;;;15.10;99.90;;;;;;5017343;28;20445;-50
2021/09/04 02:18:50;;;;;;;23.70;14.33;;;15.10;99.90;;;;;;5017109;28;20488;-50
2021/09/04 02:21:16;;;;;;;27.10;15.40;;;15.10;99.90;;;;;;5016726;28;20507;-54
2021/09/04 02:23:43;;;;;;;26.07;14.47;;;15.10;99.90;;;;;;5016398;28;20520;-54
2021/09/04 02:26:10;;;;;;;23.90;15.53;;;15.00;99.90;;;;;;5016778;28;20461;-51
2021/09/04 02:28:36;;;;;;;20.50;13.40;;;15.00;99.90;;;;;;5016528;28;20511;-49
2021/09/04 02:31:03;;;;;;;23.60;14.20;;;15.00;99.90;;;;;;5016589;28;20453;-50
2021/09/04 02:33:30;;;;;;;24.87;14.77;;;15.00;99.90;;;;;;5016899;28;20452;-53
2021/09/04 02:35:58;;;;;;;27.67;17.33;;;15.00;99.90;;;;;;5016888;28;20453;-49
2021/09/04 02:38:25;;;;;;;28.13;15.60;;;15.00;99.90;;;;;;5016642;28;20550;-51
2021/09/04 02:40:51;;;;;;;27.03;15.70;;;14.90;99.90;;;;;;5016633;28;20453;-51
2021/09/04 02:43:18;;;;;;;28.23;16.17;;;14.90;99.90;;;;;;5016252;28;20962;-52
2021/09/04 02:45:44;;;;;;;26.20;15.73;;;14.90;99.90;;;;;;5016584;28;20833;-53
2021/09/04 02:48:11;;;;;;;22.77;15.03;;;14.90;99.90;;;;;;5016371;28;20442;-52
2021/09/04 02:50:38;;;;;;;25.53;14.70;;;14.90;99.90;;;;;;5022680;28;20496;-52
2021/09/04 02:53:07;;;;;;;33.60;18.13;;;14.90;99.90;;;;;;5016928;28;20442;-48
2021/09/04 02:55:34;;;;;;;26.13;14.20;;;14.90;99.90;;;;;;5016365;28;20798;-52
2021/09/04 02:58:01;;;;;;;21.67;15.13;;;14.90;99.90;;;;;;5016372;28;20812;-54
2021/09/04 03:00:29;;;;;;;28.33;13.67;;;14.90;99.90;;;;;;5016184;28;20453;-48
2021/09/04 03:02:55;;;;;;;25.00;14.70;;;14.90;99.90;;;;;;5016260;28;20481;-53
2021/09/04 03:05:23;;;;;;;23.40;14.10;;;14.90;99.90;;;;;;5016261;28;20775;-52
2021/09/04 03:07:50;;;;;;;24.17;14.60;;;14.80;99.90;;;;;;5016110;28;20465;-51
2021/09/04 03:10:18;;;;;;;25.07;14.63;;;14.80;99.90;;;;;;5016260;28;20475;-55
2021/09/04 03:12:45;;;;;;;25.57;15.60;;;14.80;99.90;;;;;;5015993;28;20511;-50
2021/09/04 03:15:12;;;;;;;22.47;15.33;;;14.70;99.90;;;;;;5016127;28;20445;-51
2021/09/04 03:17:39;;;;;;;21.80;14.23;;;14.70;99.90;;;;;;5015919;28;20460;-50
2021/09/04 03:20:07;;;;;;;28.20;15.70;;;14.70;99.90;;;;;;5015873;28;20844;-51
2021/09/04 03:22:34;;;;;;;23.90;15.13;;;14.70;99.90;;;;;;5015824;28;20445;-49
2021/09/04 03:25:01;;;;;;;23.37;14.57;;;14.60;99.90;;;;;;5015625;28;20507;-48
2021/09/04 03:27:29;;;;;;;20.20;13.23;;;14.60;99.90;;;;;;5015803;28;20507;-51
2021/09/04 03:29:55;;;;;;;20.33;13.27;;;14.60;99.90;;;;;;5014944;28;20515;-54
2021/09/04 03:32:22;;;;;;;21.83;13.90;;;14.50;99.90;;;;;;5015418;28;20461;-54
2021/09/04 03:34:49;;;;;;;29.03;14.07;;;14.50;99.90;;;;;;5014892;28;20441;-49
2021/09/04 03:37:16;;;;;;;23.10;15.13;;;14.60;99.90;;;;;;5015473;28;20495;-51
2021/09/04 03:39:42;;;;;;;26.93;15.37;;;14.50;99.90;;;;;;5015612;28;20489;-47
2021/09/04 03:42:09;;;;;;;20.57;13.73;;;14.50;99.90;;;;;;5015209;28;20441;-55
2021/09/04 03:44:37;;;;;;;18.67;12.00;;;14.40;99.90;;;;;;5015116;28;20488;-50
2021/09/04 03:47:04;;;;;;;22.03;14.10;;;14.30;99.90;;;;;;5015520;28;20457;-51
2021/09/04 03:49:31;;;;;;;22.27;13.53;;;14.30;99.90;;;;;;5015319;28;20841;-48
2021/09/04 03:51:58;;;;;;;28.43;13.43;;;14.30;99.90;;;;;;5015511;28;20748;-49
2021/09/04 03:54:25;;;;;;;24.33;14.67;;;14.20;99.90;;;;;;5015103;28;20441;-48
2021/09/04 03:56:53;;;;;;;23.70;14.80;;;14.20;99.90;;;;;;5015387;28;20449;-48
2021/09/04 03:59:20;;;;;;;22.80;13.00;;;14.20;99.90;;;;;;5015025;28;20487;-47
2021/09/04 04:01:49;;;;;;;25.70;13.83;;;14.10;99.90;;;;;;5014784;28;20484;-50
2021/09/04 04:04:15;;;;;;;24.23;14.03;;;14.20;99.90;;;;;;5015070;28;20557;-47
2021/09/04 04:06:48;;;;;;;22.80;14.43;;;14.20;99.90;;;;;;4997710;28;20445;-48
2021/09/04 04:09:15;;;;;;;26.07;14.90;;;14.10;99.90;;;;;;5015042;28;20520;-48
2021/09/04 04:11:42;;;;;;;22.27;13.77;;;14.00;99.90;;;;;;5014915;28;20463;-46
2021/09/04 04:14:11;;;;;;;23.90;14.33;;;14.00;99.90;;;;;;5015028;28;20460;-47
2021/09/04 04:16:38;;;;;;;26.60;15.57;;;13.90;99.90;;;;;;5015080;28;20518;-46
2021/09/04 04:19:09;;;;;;;28.77;16.20;;;13.90;99.90;;;;;;5014818;28;20558;-46
2021/09/04 04:21:36;;;;;;;28.53;14.57;;;13.80;99.90;;;;;;5015211;28;20495;-53
2021/09/04 04:24:03;;;;;;;23.07;14.20;;;13.90;99.90;;;;;;5015086;28;20644;-50
2021/09/04 04:26:30;;;;;;;29.10;14.50;;;13.90;99.90;;;;;;5014994;28;20826;-49
2021/09/04 04:28:59;;;;;;;27.73;15.83;;;13.90;99.90;;;;;;5015720;28;20544;-51
2021/09/04 04:31:25;;;;;;;27.70;16.77;;;14.00;99.90;;;;;;5014552;28;20449;-51
2021/09/04 04:33:52;;;;;;;29.90;17.80;;;14.00;99.90;;;;;;5014767;28;20818;-53
2021/09/04 04:36:20;;;;;;;30.30;16.83;;;14.10;99.90;;;;;;5014321;28;20465;-52
2021/09/04 04:38:47;;;;;;;36.03;18.30;;;14.10;99.90;;;;;;5014629;28;20488;-50
2021/09/04 04:41:13;;;;;;;33.57;19.27;;;14.20;99.90;;;;;;5014498;28;20983;-50
2021/09/04 04:43:40;;;;;;;29.50;17.40;;;14.20;99.90;;;;;;5014312;28;20535;-50
2021/09/04 04:46:07;;;;;;;32.53;17.07;;;14.20;99.90;;;;;;5014349;28;20456;-51
2021/09/04 04:48:34;;;;;;;31.70;17.97;;;14.30;99.90;;;;;;5014342;28;20445;-48
2021/09/04 04:51:01;;;;;;;32.40;19.90;;;14.30;99.90;;;;;;5014545;28;20449;-52
2021/09/04 04:53:29;;;;;;;37.57;19.37;;;14.30;99.90;;;;;;5014591;28;20453;-47
2021/09/04 04:55:55;;;;;;;33.63;18.83;;;14.30;99.90;;;;;;5014474;28;20917;-48
2021/09/04 04:58:22;;;;;;;35.53;20.00;;;14.30;99.90;;;;;;5014416;28;20507;-51
2021/09/04 05:00:53;;;;;;;29.27;18.00;;;14.40;99.90;;;;;;5014438;28;20455;-52
2021/09/04 05:03:19;;;;;;;35.47;17.63;;;14.40;99.90;;;;;;5014531;28;20429;-52
2021/09/04 05:05:46;;;;;;;31.33;17.93;;;14.40;99.90;;;;;;5014120;28;20515;-52
2021/09/04 05:08:13;;;;;;;29.80;16.70;;;14.40;99.90;;;;;;5014190;28;20519;-51
2021/09/04 05:10:41;;;;;;;35.67;17.60;;;14.40;99.90;;;;;;5014354;28;20560;-51
2021/09/04 05:13:07;;;;;;;35.17;20.00;;;14.40;99.90;;;;;;5014100;28;20445;-54
2021/09/04 05:15:34;;;;;;;27.30;16.83;;;14.40;99.90;;;;;;5014409;28;20522;-50
2021/09/04 05:18:01;;;;;;;33.07;18.47;;;14.40;99.90;;;;;;5014022;28;20514;-54
2021/09/04 05:20:27;;;;;;;34.37;18.40;;;14.40;99.90;;;;;;5014164;28;20481;-49
2021/09/04 05:22:54;;;;;;;38.43;18.83;;;14.40;99.90;;;;;;5014323;28;20449;-54
2021/09/04 05:25:21;;;;;;;32.70;17.53;;;14.40;99.90;;;;;;5014155;28;20499;-53
2021/09/04 05:27:49;;;;;;;31.20;18.00;;;14.30;99.90;;;;;;5014067;28;20465;-54
2021/09/04 05:30:16;;;;;;;31.60;19.90;;;14.40;99.90;;;;;;5013852;28;20441;-50
2021/09/04 05:32:42;;;;;;;32.43;16.50;;;14.40;99.90;;;;;;5014164;28;20514;-50
2021/09/04 05:35:09;;;;;;;31.30;17.60;;;14.40;99.90;;;;;;5014205;28;20504;-53
2021/09/04 05:37:36;;;;;;;25.93;15.40;;;14.40;99.90;;;;;;5013852;28;20515;-52
2021/09/04 05:40:04;;;;;;;27.37;17.00;;;14.40;99.90;;;;;;5014132;28;20850;-50
2021/09/04 05:42:30;;;;;;;29.03;16.60;;;14.40;99.90;;;;;;5013827;28;20437;-52
2021/09/04 05:44:58;;;;;;;29.30;17.83;;;14.40;99.90;;;;;;5014098;28;20503;-48
2021/09/04 05:47:25;;;;;;;30.03;16.77;;;14.40;99.90;;;;;;5013789;28;20451;-53
2021/09/04 05:49:52;;;;;;;24.57;14.70;;;14.40;99.90;;;;;;5022063;28;20486;-49
2021/09/04 05:52:18;;;;;;;28.80;16.47;;;14.40;99.90;;;;;;5023326;28;20440;-48
2021/09/04 05:54:45;;;;;;;26.93;15.67;;;14.50;99.90;;;;;;5034502;28;20455;-49
2021/09/04 05:57:11;;;;;;;26.13;14.10;;;14.50;99.90;;;;;;5034681;28;20435;-47
2021/09/04 05:59:38;;;;;;;24.10;14.20;;;14.50;99.90;;;;;;5041262;28;20514;-47
2021/09/04 06:02:06;;;;;;;24.00;14.70;;;14.40;99.90;;;;;;5041396;28;20463;-48
2021/09/04 06:04:35;;;;;;;26.17;14.73;;;14.50;99.90;;;;;;5040296;28;20448;-53
2021/09/04 06:07:02;;;;;;;25.73;14.50;;;14.50;99.90;;;;;;5044804;28;20450;-49
2021/09/04 06:09:29;;;;;;;23.40;14.00;;;14.50;99.90;;;;;;5044448;28;20444;-51
2021/09/04 06:11:56;;;;;;;21.90;13.30;;;14.50;99.90;;;;;;5045159;28;20487;-49
2021/09/04 06:14:23;;;;;;;18.73;12.43;;;14.50;99.90;;;;;;5044806;28;20856;-51
2021/09/04 06:16:49;;;;;;;24.30;13.70;;;14.60;99.90;;;;;;5044392;28;20443;-50
2021/09/04 06:19:17;;;;;;;26.00;13.97;;;14.60;99.90;;;;;;5044038;28;20487;-53
2021/09/04 06:21:46;;;;;;;23.17;12.60;;;14.70;99.90;;;;;;5044259;28;20451;-50
2021/09/04 06:24:13;;;;;;;23.27;13.20;;;14.70;99.90;;;;;;5044603;28;20483;-51
2021/09/04 06:26:39;;;;;;;21.27;13.07;;;14.80;99.90;;;;;;5044200;28;20491;-48
2021/09/04 06:29:06;;;;;;;22.37;12.00;;;14.80;99.90;;;;;;5044789;28;20752;-49
2021/09/04 06:31:35;;;;;;;22.90;12.37;;;14.70;99.90;;;;;;5045080;28;20452;-49
2021/09/04 06:34:01;;;;;;;18.90;11.90;;;14.80;99.90;;;;;;5046633;28;20464;-52
2021/09/04 06:36:30;;;;;;;20.00;12.40;;;14.80;99.90;;;;;;5053318;28;20451;-51
2021/09/04 06:38:56;;;;;;;23.50;13.47;;;14.90;99.90;;;;;;5053775;28;20454;-51
2021/09/04 06:41:23;;;;;;;24.20;12.00;;;14.80;99.90;;;;;;5053649;28;20444;-51
2021/09/04 06:43:50;;;;;;;18.57;12.47;;;14.70;99.90;;;;;;5053688;28;20479;-53
2021/09/04 06:46:16;;;;;;;21.47;13.20;;;14.80;99.90;;;;;;5053639;28;20440;-49
2021/09/04 06:48:43;;;;;;;23.10;14.13;;;14.80;99.90;;;;;;5053790;28;20945;-52
2021/09/04 06:51:09;;;;;;;23.70;12.50;;;14.90;99.90;;;;;;5053331;28;20457;-48
2021/09/04 06:53:38;;;;;;;17.77;11.57;;;14.90;99.90;;;;;;5053101;28;20475;-49
2021/09/04 06:56:05;;;;;;;27.23;13.23;;;15.00;99.90;;;;;;5052563;28;20444;-47
2021/09/04 06:58:32;;;;;;;20.63;12.37;;;15.10;99.90;;;;;;5053088;28;20474;-49
2021/09/04 07:01:01;;;;;;;23.00;15.30;;;15.10;99.90;;;;;;5049665;28;21011;-49
2021/09/04 07:03:27;;;;;;;21.47;11.93;;;15.20;99.90;;;;;;5032125;28;20504;-50
2021/09/04 07:05:54;;;;;;;21.03;11.67;;;15.20;99.90;;;;;;5032146;28;20437;-49
2021/09/04 07:08:21;;;;;;;18.90;11.00;;;15.20;99.90;;;;;;5032911;28;20464;-52
2021/09/04 07:10:49;;;;;;;20.90;13.10;;;15.30;99.90;;;;;;5037776;28;20460;-54
2021/09/04 07:13:15;;;;;;;23.17;12.30;;;15.40;99.90;;;;;;5034306;28;20477;-52
2021/09/04 07:15:43;;;;;;;22.00;13.57;;;15.50;99.90;;;;;;5033423;28;20479;-51
2021/09/04 07:18:10;;;;;;;23.30;13.27;;;15.50;99.90;;;;;;5038443;28;20425;-53
2021/09/04 07:20:36;;;;;;;25.13;13.20;;;15.50;99.90;;;;;;5037890;28;20457;-51
2021/09/04 07:23:03;;;;;;;18.37;11.53;;;15.50;99.90;;;;;;5037731;28;20437;-51
2021/09/04 07:25:30;;;;;;;19.17;13.57;;;15.50;99.90;;;;;;5037565;28;20468;-51
2021/09/04 07:27:58;;;;;;;18.40;12.20;;;15.60;99.90;;;;;;5036436;28;20487;-51
2021/09/04 07:30:27;;;;;;;21.97;14.40;;;15.80;99.90;;;;;;5032616;28;20472;-48
2021/09/04 07:32:54;;;;;;;26.43;12.43;;;15.70;99.90;;;;;;5032869;28;20441;-54
2021/09/04 07:35:21;;;;;;;21.23;12.73;;;15.70;99.90;;;;;;5031329;28;20445;-54
2021/09/04 07:37:47;;;;;;;20.13;12.53;;;15.70;99.90;;;;;;5038156;28;20956;-56
2021/09/04 07:40:14;;;;;;;18.67;12.20;;;15.80;99.90;;;;;;5057863;28;20476;-57
2021/09/04 07:42:44;;;;;;;20.43;11.63;;;16.00;99.90;;;;;;5058227;28;20464;-51
2021/09/04 07:45:12;;;;;;;18.87;13.07;;;16.00;99.90;;;;;;5057896;28;20428;-56
2021/09/04 07:47:39;;;;;;;20.73;11.53;;;15.90;99.90;;;;;;5057854;28;20444;-55
2021/09/04 07:50:07;;;;;;;22.37;13.27;;;15.90;99.90;;;;;;5057755;28;20440;-51
2021/09/04 07:52:37;;;;;;;20.60;13.47;;;16.00;99.90;;;;;;5050671;28;20514;-53
2021/09/04 07:55:04;;;;;;;19.90;12.70;;;16.10;99.90;;;;;;5049494;28;20432;-54
2021/09/04 07:57:33;;;;;;;26.00;14.10;;;16.30;99.90;;;;;;5048555;28;20444;-53
2021/09/04 08:00:00;;;;;;;17.67;12.03;;;16.40;99.90;;;;;;5049955;28;20480;-51
2021/09/04 08:02:28;;;;;;;21.57;14.40;;;16.50;99.90;;;;;;5049643;28;20502;-50
2021/09/04 08:04:55;;;;;;;23.70;14.03;;;16.50;99.90;;;;;;5049883;28;20455;-55
2021/09/04 08:07:22;;;;;;;21.97;13.40;;;16.40;99.90;;;;;;5049128;28;20440;-52
2021/09/04 08:09:48;;;;;;;21.73;12.80;;;16.40;99.90;;;;;;5050190;28;20471;-54
2021/09/04 08:12:15;;;;;;;22.00;12.97;;;16.40;99.90;;;;;;5049490;28;20472;-55
2021/09/04 08:14:44;;;;;;;23.07;13.33;;;16.40;99.90;;;;;;5046356;28;20468;-54
2021/09/04 08:17:11;;;;;;;23.53;13.67;;;16.50;99.90;;;;;;5040299;28;20433;-54
2021/09/04 08:19:39;;;;;;;24.70;15.13;;;16.40;99.90;;;;;;5049713;28;20479;-53
2021/09/04 08:22:06;;;;;;;22.77;13.07;;;16.50;99.90;;;;;;5035586;28;20480;-50
2021/09/04 08:24:33;;;;;;;23.60;13.50;;;16.40;99.90;;;;;;5046243;28;20522;-49
2021/09/04 08:27:00;;;;;;;20.17;12.90;;;16.30;99.90;;;;;;5029641;28;20468;-51
2021/09/04 08:29:27;;;;;;;24.87;13.87;;;16.30;99.90;;;;;;5037594;28;20444;-50
2021/09/04 08:31:55;;;;;;;26.43;14.13;;;16.30;99.90;;;;;;5048944;28;20498;-53
2021/09/04 08:34:29;;;;;;;22.57;12.90;;;16.40;99.90;;;;;;5055556;28;20449;-50
2021/09/04 08:36:56;;;;;;;25.03;15.33;;;16.40;99.90;;;;;;5036140;28;20456;-53
2021/09/04 08:39:23;;;;;;;22.47;13.50;;;16.50;99.90;;;;;;5040528;28;20430;-55
2021/09/04 08:41:55;;;;;;;22.83;14.17;;;16.70;99.90;;;;;;5055145;28;20462;-49
2021/09/04 08:44:22;;;;;;;22.50;13.13;;;16.70;99.90;;;;;;5055236;28;20456;-54
2021/09/04 08:46:51;;;;;;;21.10;12.47;;;16.70;99.90;;;;;;5052301;28;20472;-51
2021/09/04 08:49:18;;;;;;;22.20;13.10;;;16.80;99.90;;;;;;5035224;28;20441;-54
2021/09/04 08:51:45;;;;;;;23.73;14.17;;;16.80;99.90;;;;;;5035069;28;20459;-53
2021/09/04 08:54:13;;;;;;;22.67;14.23;;;16.90;99.90;;;;;;5034851;28;20503;-53
2021/09/04 08:56:40;;;;;;;22.53;14.20;;;17.00;99.90;;;;;;5029464;28;20433;-48
2021/09/04 08:59:07;;;;;;;26.80;14.70;;;17.10;99.90;;;;;;5025146;28;20456;-48
2021/09/04 09:01:33;;;;;;;22.03;13.07;;;17.10;99.90;;;;;;5027938;28;20804;-52
2021/09/04 09:04:05;;;;;;;25.23;14.50;;;17.10;99.90;;;;;;5028188;28;20440;-52
2021/09/04 09:06:34;;;;;;;17.33;13.30;;;17.20;99.90;;;;;;5033736;28;20452;-53
2021/09/04 09:09:16;;;;;;;21.57;13.07;;;17.20;99.90;;;;;;5034179;28;20455;-54
2021/09/04 09:11:43;;;;;;;25.40;14.60;;;17.20;99.90;;;;;;5034118;28;20515;-51
2021/09/04 09:14:10;;;;;;;19.97;12.93;;;17.30;99.90;;;;;;5033712;28;20485;-53
2021/09/04 09:16:49;;;;;;;24.20;14.53;;;17.30;99.90;;;;;;5034028;28;20545;-53
2021/09/04 09:19:16;;;;;;;24.07;13.87;;;17.30;99.90;;;;;;5033898;28;20489;-52
2021/09/04 09:21:43;;;;;;;20.80;13.70;;;17.30;99.90;;;;;;5034022;28;20475;-50
2021/09/04 09:24:12;;;;;;;25.77;13.87;;;17.30;99.90;;;;;;5034124;28;20455;-49
2021/09/04 09:26:54;;;;;;;22.50;13.80;;;17.40;99.90;;;;;;5033933;28;20460;-52
2021/09/04 09:29:23;;;;;;;22.43;12.10;;;17.40;99.90;;;;;;5033451;28;20487;-53
2021/09/04 09:31:50;;;;;;;24.20;14.10;;;17.50;99.90;;;;;;5033683;28;20463;-51
2021/09/04 09:34:17;;;;;;;21.20;11.90;;;17.40;99.90;;;;;;5037585;28;20505;-52
2021/09/04 09:36:52;;;;;;;20.47;13.83;;;17.40;99.90;;;;;;5037788;28;20440;-52
2021/09/04 09:39:20;;;;;;;26.23;14.90;;;17.40;99.90;;;;;;5037592;28;20483;-52
2021/09/04 09:41:52;;;;;;;24.87;13.93;;;17.50;99.90;;;;;;5037337;28;20480;-52
2021/09/04 09:44:21;;;;;;;21.13;12.20;;;17.50;99.90;;;;;;5037197;28;20832;-52
2021/09/04 09:46:50;;;;;;;20.63;12.83;;;17.50;99.90;;;;;;5037261;28;20963;-53
2021/09/04 09:49:16;;;;;;;23.67;13.80;;;17.40;99.90;;;;;;5037300;28;20462;-53
2021/09/04 09:51:44;;;;;;;22.70;12.87;;;17.30;99.90;;;;;;5037461;28;20828;-53
2021/09/04 09:54:11;;;;;;;24.17;14.47;;;17.20;99.90;;;;;;5037559;28;20781;-52
2021/09/04 09:56:40;;;;;;;19.47;13.37;;;17.30;99.90;;;;;;5037242;28;20792;-50
2021/09/04 09:59:12;;;;;;;19.83;12.13;;;17.30;99.90;;;;;;5037443;28;20440;-48
2021/09/04 10:01:41;;;;;;;18.60;13.30;;;17.30;99.90;;;;;;5036650;28;20479;-53
2021/09/04 10:04:11;;;;;;;21.13;12.60;;;17.40;99.90;;;;;;5037140;28;20785;-53
2021/09/04 10:06:39;;;;;;;22.33;12.03;;;17.50;99.90;;;;;;5037296;28;20478;-50
2021/09/04 10:09:06;;;;;;;23.60;13.73;;;17.70;99.90;;;;;;5037003;28;20448;-50
2021/09/04 10:11:36;;;;;;;20.20;11.43;;;17.80;99.90;;;;;;5036914;28;20925;-53
2021/09/04 10:14:03;;;;;;;24.30;12.00;;;17.80;99.90;;;;;;5036868;28;20502;-54
2021/09/04 10:16:32;;;;;;;30.23;13.40;;;17.90;99.90;;;;;;5036962;28;20837;-48
2021/09/04 10:18:59;;;;;;;23.10;13.53;;;17.90;99.90;;;;;;5036772;28;20513;-50
2021/09/04 10:21:27;;;;;;;26.30;12.90;;;17.90;99.90;;;;;;5036593;28;20484;-52
2021/09/04 10:23:54;;;;;;;24.07;12.20;;;17.80;99.90;;;;;;5036978;28;20459;-51
2021/09/04 10:26:31;;;;;;;19.20;11.37;;;17.80;99.90;;;;;;5036890;28;20963;-52
2021/09/04 10:29:02;;;;;;;22.47;14.30;;;17.90;99.90;;;;;;5036919;28;20503;-49
2021/09/04 10:32:00;;;;;;;23.70;13.70;;;18.00;99.90;;;;;;5036847;28;20495;-48
2021/09/04 10:34:35;;;;;;;23.67;13.77;;;18.00;99.90;;;;;;5031082;28;20448;-53
2021/09/04 10:37:05;;;;;;;21.70;12.87;;;18.00;99.90;;;;;;5036728;28;20539;-51
2021/09/04 10:39:54;;;;;;;21.87;12.27;;;18.10;99.90;;;;;;5036711;28;20460;-54
2021/09/04 10:42:24;;;;;;;20.67;13.17;;;18.00;99.90;;;;;;5030409;28;20456;-51
2021/09/04 10:44:56;;;;;;;20.53;13.03;;;17.80;99.90;;;;;;5036182;28;20821;-53
2021/09/04 10:47:30;;;;;;;19.43;12.40;;;17.70;99.90;;;;;;5036550;28;20448;-53
2021/09/04 10:50:13;;;;;;;25.73;14.20;;;17.80;99.90;;;;;;5036187;28;20444;-47
2021/09/04 10:52:56;;;;;;;24.87;13.67;;;17.90;99.90;;;;;;5036490;28;20447;-48
2021/09/04 10:55:24;;;;;;;29.17;13.73;;;17.90;99.90;;;;;;5036266;28;20789;-51
2021/09/04 10:57:52;;;;;;;25.03;14.33;;;17.90;99.90;;;;;;5036192;28;20513;-53
2021/09/04 11:00:24;;;;;;;18.90;13.30;;;18.00;99.90;;;;;;5036212;28;20483;-47
2021/09/04 11:03:02;;;;;;;23.77;14.30;;;18.00;99.90;;;;;;5036157;28;20460;-47
2021/09/04 11:05:47;;;;;;;16.63;11.80;;;18.00;99.90;;;;;;5036377;28;20432;-50
2021/09/04 11:08:28;;;;;;;17.80;11.10;;;18.00;99.90;;;;;;5036654;28;20451;-48
2021/09/04 11:11:10;;;;;;;19.80;13.90;;;18.10;99.90;;;;;;5036424;28;20463;-52
2021/09/04 11:13:39;;;;;;;23.00;14.70;;;18.10;99.90;;;;;;5037252;28;20451;-54
2021/09/04 11:16:25;;;;;;;18.33;11.50;;;18.20;99.90;;;;;;5036268;28;20527;-48
2021/09/04 11:18:53;;;;;;;25.50;13.43;;;18.20;99.90;;;;;;5036094;28;20578;-47
2021/09/04 11:21:21;;;;;;;19.60;13.83;;;18.20;99.90;;;;;;5035919;28;20480;-51
2021/09/04 11:23:49;;;;;;;22.43;12.83;;;18.30;99.90;;;;;;5035820;28;20533;-51
2021/09/04 11:26:15;;;;;;;23.03;13.90;;;18.30;99.90;;;;;;5035730;28;20448;-53
2021/09/04 11:28:42;;;;;;;18.07;12.47;;;18.30;99.90;;;;;;5035458;28;20501;-50
2021/09/04 11:31:09;;;;;;;21.77;13.63;;;18.30;99.90;;;;;;5035684;28;20582;-54
2021/09/04 11:33:35;;;;;;;24.23;12.87;;;18.30;99.90;;;;;;5035636;28;20456;-47
2021/09/04 11:36:04;;;;;;;23.20;12.93;;;18.40;99.90;;;;;;5035235;28;20925;-53
2021/09/04 11:38:31;;;;;;;21.50;12.93;;;18.50;99.90;;;;;;5035268;28;20448;-51
2021/09/04 11:40:58;;;;;;;26.30;12.07;;;18.50;99.90;;;;;;5035095;28;20952;-51
2021/09/04 11:43:26;;;;;;;20.67;11.83;;;18.60;99.90;;;;;;5034954;28;20491;-47
2021/09/04 11:46:02;;;;;;;19.23;11.67;;;18.60;99.90;;;;;;5035359;28;20456;-50
2021/09/04 11:48:29;;;;;;;23.97;11.60;;;18.70;99.90;;;;;;5035297;28;20444;-54
2021/09/04 11:51:06;;;;;;;21.93;11.87;;;18.80;99.90;;;;;;5035010;28;20444;-49
2021/09/04 11:53:33;;;;;;;21.27;11.63;;;18.80;99.90;;;;;;5035058;28;20452;-51
2021/09/04 11:56:00;;;;;;;17.77;11.00;;;18.80;99.90;;;;;;5034398;28;20510;-50
2021/09/04 11:58:28;;;;;;;17.23;10.67;;;18.70;99.90;;;;;;5035194;28;20506;-52
2021/09/04 12:01:02;;;;;;;22.50;10.90;;;18.60;99.90;;;;;;5034723;28;20480;-51
2021/09/04 12:03:29;;;;;;;19.07;11.03;;;18.60;99.90;;;;;;5035128;28;20462;-53
2021/09/04 12:05:56;;;;;;;16.00;10.90;;;18.60;99.90;;;;;;5034749;28;20455;-48
2021/09/04 12:08:26;;;;;;;15.50;9.20;;;18.60;99.90;;;;;;5034990;28;20514;-50
2021/09/04 12:10:59;;;;;;;15.37;10.80;;;18.50;99.90;;;;;;5035215;28;20445;-49
2021/09/04 12:13:28;;;;;;;17.17;10.20;;;18.50;99.90;;;;;;5034870;28;20448;-50
2021/09/04 12:15:56;;;;;;;23.20;13.20;;;18.60;99.90;;;;;;5034735;28;20452;-53
2021/09/04 12:18:28;;;;;;;19.10;12.53;;;18.80;99.90;;;;;;5034607;28;20464;-51
2021/09/04 12:20:54;;;;;;;19.53;12.17;;;18.90;99.90;;;;;;5034740;28;20500;-50
2021/09/04 12:23:24;;;;;;;20.63;13.00;;;18.80;99.90;;;;;;5034437;28;20440;-53
2021/09/04 12:25:53;;;;;;;18.63;12.10;;;18.80;99.90;;;;;;5034929;28;20467;-52
2021/09/04 12:28:24;;;;;;;19.83;12.10;;;18.90;99.90;;;;;;5034820;28;20458;-47
2021/09/04 12:31:01;;;;;;;20.73;12.20;;;19.00;99.90;;;;;;5034628;28;20502;-55
2021/09/04 12:33:28;;;;;;;22.13;11.50;;;19.00;99.90;;;;;;5034614;28;20463;-54